sensor_id;sensor_type;location;lat;lon;timestamp;pressure;altitude;pressure_sealevel;temperature;humidity
21828;BME280;11076;47.942;11.804;2023-04-07T00:02:54;94330.19;;;1.43;67.01
21828;BME280;11076;47.942;11.804;2023-04-07T00:07:57;94330.88;;;1.53;67.04
21828;BME280;11076;47.942;11.804;2023-04-07T00:12:59;94335.00;;;1.56;66.52
21828;BME280;11076;47.942;11.804;2023-04-07T00:18:02;94328.56;;;1.42;67.00
21828;BME280;11076;47.942;11.804;2023-04-07T00:23:04;94320.50;;;1.52;66.50
21828;BME280;11076;47.942;11.804;2023-04-07T00:28:07;94312.91;;;1.57;66.85
21828;BME280;11076;47.942;11.804;2023-04-07T00:33:09;94309.44;;;1.65;66.83
21828;BME280;11076;47.942;11.804;2023-04-07T00:38:12;94309.13;;;1.59;66.62
21828;BME280;11076;47.942;11.804;2023-04-07T00:43:14;94317.19;;;1.58;67.13
21828;BME280;11076;47.942;11.804;2023-04-07T00:48:16;94312.44;;;1.53;67.49
21828;BME280;11076;47.942;11.804;2023-04-07T00:53:19;94304.34;;;1.63;67.31
21828;BME280;11076;47.942;11.804;2023-04-07T00:58:22;94305.50;;;1.61;66.94
21828;BME280;11076;47.942;11.804;2023-04-07T01:03:30;94301.72;;;1.71;67.34
21828;BME280;11076;47.942;11.804;2023-04-07T01:14:28;94290.69;;;1.68;67.34
21828;BME280;11076;47.942;11.804;2023-04-07T01:19:55;94282.78;;;1.59;67.41
21828;BME280;11076;47.942;11.804;2023-04-07T01:30:21;94287.22;;;1.59;67.42
21828;BME280;11076;47.942;11.804;2023-04-07T01:35:26;94292.81;;;1.56;67.66
21828;BME280;11076;47.942;11.804;2023-04-07T01:40:32;94286.25;;;1.52;68.23
21828;BME280;11076;47.942;11.804;2023-04-07T01:45:36;94282.44;;;1.46;68.82
21828;BME280;11076;47.942;11.804;2023-04-07T01:50:39;94280.31;;;1.42;69.15
21828;BME280;11076;47.942;11.804;2023-04-07T01:55:42;94280.47;;;1.48;69.53
21828;BME280;11076;47.942;11.804;2023-04-07T02:00:45;94273.06;;;1.52;69.86
21828;BME280;11076;47.942;11.804;2023-04-07T02:05:54;94272.41;;;1.50;69.27
21828;BME280;11076;47.942;11.804;2023-04-07T02:11:02;94272.06;;;1.45;69.41
21828;BME280;11076;47.942;11.804;2023-04-07T02:16:09;94266.13;;;1.51;70.17
21828;BME280;11076;47.942;11.804;2023-04-07T02:21:14;94267.63;;;1.53;70.84
21828;BME280;11076;47.942;11.804;2023-04-07T02:26:19;94270.75;;;1.49;70.41
21828;BME280;11076;47.942;11.804;2023-04-07T02:31:23;94266.78;;;1.53;70.68
21828;BME280;11076;47.942;11.804;2023-04-07T02:36:25;94264.97;;;1.45;70.51
21828;BME280;11076;47.942;11.804;2023-04-07T02:41:28;94253.13;;;1.41;70.70
21828;BME280;11076;47.942;11.804;2023-04-07T02:46:30;94263.84;;;1.48;71.05
21828;BME280;11076;47.942;11.804;2023-04-07T02:51:33;94264.16;;;1.61;71.65
21828;BME280;11076;47.942;11.804;2023-04-07T02:56:35;94260.34;;;1.80;71.79
21828;BME280;11076;47.942;11.804;2023-04-07T03:01:38;94261.75;;;2.07;71.69
21828;BME280;11076;47.942;11.804;2023-04-07T03:06:41;94254.41;;;2.34;73.29
21828;BME280;11076;47.942;11.804;2023-04-07T03:11:48;94250.38;;;2.46;73.51
21828;BME280;11076;47.942;11.804;2023-04-07T03:16:51;94248.81;;;2.60;75.31
21828;BME280;11076;47.942;11.804;2023-04-07T03:21:53;94249.19;;;2.80;79.03
21828;BME280;11076;47.942;11.804;2023-04-07T03:26:56;94237.88;;;2.94;79.22
21828;BME280;11076;47.942;11.804;2023-04-07T03:32:10;94232.19;;;3.06;78.97
21828;BME280;11076;47.942;11.804;2023-04-07T03:37:12;94241.25;;;3.11;79.16
21828;BME280;11076;47.942;11.804;2023-04-07T03:42:16;94237.41;;;3.14;79.42
21828;BME280;11076;47.942;11.804;2023-04-07T03:47:19;94241.00;;;3.21;79.38
21828;BME280;11076;47.942;11.804;2023-04-07T03:52:27;94246.88;;;3.31;79.41
21828;BME280;11076;47.942;11.804;2023-04-07T03:57:36;94237.75;;;3.34;79.17
21828;BME280;11076;47.942;11.804;2023-04-07T04:02:40;94239.25;;;3.36;80.03
21828;BME280;11076;47.942;11.804;2023-04-07T04:07:53;94226.66;;;3.38;80.12
21828;BME280;11076;47.942;11.804;2023-04-07T04:12:57;94227.75;;;3.44;80.75
21828;BME280;11076;47.942;11.804;2023-04-07T04:18:02;94225.78;;;3.46;80.49
21828;BME280;11076;47.942;11.804;2023-04-07T04:23:05;94215.38;;;3.45;82.30
21828;BME280;11076;47.942;11.804;2023-04-07T04:28:09;94211.25;;;3.42;82.32
21828;BME280;11076;47.942;11.804;2023-04-07T04:33:12;94217.66;;;3.48;82.24
21828;BME280;11076;47.942;11.804;2023-04-07T04:38:26;94215.00;;;3.48;82.50
21828;BME280;11076;47.942;11.804;2023-04-07T04:43:39;94220.66;;;3.45;83.14
21828;BME280;11076;47.942;11.804;2023-04-07T04:48:43;94214.66;;;3.51;82.71
21828;BME280;11076;47.942;11.804;2023-04-07T04:53:46;94224.22;;;3.52;82.43
21828;BME280;11076;47.942;11.804;2023-04-07T04:58:49;94224.03;;;3.53;82.44
21828;BME280;11076;47.942;11.804;2023-04-07T05:04:17;94228.53;;;3.53;82.97
21828;BME280;11076;47.942;11.804;2023-04-07T05:09:28;94224.22;;;3.52;82.92
21828;BME280;11076;47.942;11.804;2023-04-07T05:14:31;94217.31;;;3.51;84.06
21828;BME280;11076;47.942;11.804;2023-04-07T05:19:39;94216.19;;;3.60;84.12
21828;BME280;11076;47.942;11.804;2023-04-07T05:24:51;94221.06;;;3.56;85.01
21828;BME280;11076;47.942;11.804;2023-04-07T05:29:54;94212.66;;;3.53;86.01
21828;BME280;11076;47.942;11.804;2023-04-07T05:35:01;94212.22;;;3.64;85.63
21828;BME280;11076;47.942;11.804;2023-04-07T05:40:08;94212.69;;;3.83;85.77
21828;BME280;11076;47.942;11.804;2023-04-07T05:45:12;94203.38;;;3.87;85.79
21828;BME280;11076;47.942;11.804;2023-04-07T05:50:18;94204.47;;;3.77;86.77
21828;BME280;11076;47.942;11.804;2023-04-07T05:55:22;94209.22;;;3.67;92.08
21828;BME280;11076;47.942;11.804;2023-04-07T06:00:26;94206.66;;;3.59;92.15
21828;BME280;11076;47.942;11.804;2023-04-07T06:05:38;94196.19;;;3.81;90.54
21828;BME280;11076;47.942;11.804;2023-04-07T06:10:45;94200.38;;;4.05;90.04
21828;BME280;11076;47.942;11.804;2023-04-07T06:15:48;94189.69;;;4.28;89.66
21828;BME280;11076;47.942;11.804;2023-04-07T06:20:50;94194.91;;;4.57;89.67
21828;BME280;11076;47.942;11.804;2023-04-07T06:25:53;94197.97;;;4.76;88.39
21828;BME280;11076;47.942;11.804;2023-04-07T06:30:57;94188.25;;;5.05;88.44
21828;BME280;11076;47.942;11.804;2023-04-07T06:36:00;94192.66;;;5.19;87.03
21828;BME280;11076;47.942;11.804;2023-04-07T06:41:03;94192.78;;;4.89;87.89
21828;BME280;11076;47.942;11.804;2023-04-07T06:46:05;94182.06;;;5.19;87.95
21828;BME280;11076;47.942;11.804;2023-04-07T06:51:08;94178.34;;;5.63;86.71
21828;BME280;11076;47.942;11.804;2023-04-07T06:56:10;94169.63;;;5.97;85.48
21828;BME280;11076;47.942;11.804;2023-04-07T07:01:13;94175.38;;;6.08;85.37
21828;BME280;11076;47.942;11.804;2023-04-07T07:06:15;94174.75;;;6.47;84.16
21828;BME280;11076;47.942;11.804;2023-04-07T07:11:18;94166.41;;;6.64;82.69
21828;BME280;11076;47.942;11.804;2023-04-07T07:16:20;94168.19;;;6.43;82.08
21828;BME280;11076;47.942;11.804;2023-04-07T07:21:25;94169.81;;;6.44;80.50
21828;BME280;11076;47.942;11.804;2023-04-07T07:26:27;94162.34;;;6.61;79.85
21828;BME280;11076;47.942;11.804;2023-04-07T07:31:30;94172.25;;;7.01;79.48
21828;BME280;11076;47.942;11.804;2023-04-07T07:36:32;94178.19;;;7.16;78.52
21828;BME280;11076;47.942;11.804;2023-04-07T07:41:35;94172.47;;;7.66;77.51
21828;BME280;11076;47.942;11.804;2023-04-07T07:46:37;94171.78;;;8.10;76.36
21828;BME280;11076;47.942;11.804;2023-04-07T07:51:39;94166.81;;;8.34;75.36
21828;BME280;11076;47.942;11.804;2023-04-07T07:56:42;94170.88;;;8.43;74.33
21828;BME280;11076;47.942;11.804;2023-04-07T08:01:44;94182.22;;;8.19;72.73
21828;BME280;11076;47.942;11.804;2023-04-07T08:06:47;94171.50;;;8.45;71.97
21828;BME280;11076;47.942;11.804;2023-04-07T08:11:49;94172.72;;;8.49;72.23
21828;BME280;11076;47.942;11.804;2023-04-07T08:16:52;94173.09;;;8.53;71.64
21828;BME280;11076;47.942;11.804;2023-04-07T08:21:54;94166.00;;;8.27;70.66
21828;BME280;11076;47.942;11.804;2023-04-07T08:26:57;94167.81;;;8.46;71.00
21828;BME280;11076;47.942;11.804;2023-04-07T08:31:59;94156.72;;;8.56;68.75
21828;BME280;11076;47.942;11.804;2023-04-07T08:37:02;94157.38;;;8.83;68.39
21828;BME280;11076;47.942;11.804;2023-04-07T08:42:06;94156.09;;;8.92;67.27
21828;BME280;11076;47.942;11.804;2023-04-07T08:47:09;94149.31;;;9.28;66.80
21828;BME280;11076;47.942;11.804;2023-04-07T08:52:13;94153.13;;;9.64;66.43
21828;BME280;11076;47.942;11.804;2023-04-07T08:57:17;94147.91;;;9.94;63.70
21828;BME280;11076;47.942;11.804;2023-04-07T09:02:21;94162.13;;;10.13;63.57
21828;BME280;11076;47.942;11.804;2023-04-07T09:07:24;94154.09;;;10.39;62.24
21828;BME280;11076;47.942;11.804;2023-04-07T09:12:27;94146.84;;;10.58;62.09
21828;BME280;11076;47.942;11.804;2023-04-07T09:17:30;94142.16;;;11.02;60.05
21828;BME280;11076;47.942;11.804;2023-04-07T09:22:43;94152.84;;;10.71;57.19
21828;BME280;11076;47.942;11.804;2023-04-07T09:28:02;94148.41;;;10.95;58.53
21828;BME280;11076;47.942;11.804;2023-04-07T09:33:05;94127.91;;;11.20;56.71
21828;BME280;11076;47.942;11.804;2023-04-07T09:38:08;94141.38;;;11.55;56.73
21828;BME280;11076;47.942;11.804;2023-04-07T09:43:15;94142.03;;;11.39;55.64
21828;BME280;11076;47.942;11.804;2023-04-07T09:48:19;94130.84;;;11.18;55.65
21828;BME280;11076;47.942;11.804;2023-04-07T09:53:41;94128.44;;;11.40;54.36
21828;BME280;11076;47.942;11.804;2023-04-07T09:58:45;94128.47;;;11.52;54.50
21828;BME280;11076;47.942;11.804;2023-04-07T10:03:48;94126.09;;;11.55;53.45
21828;BME280;11076;47.942;11.804;2023-04-07T10:08:52;94109.25;;;11.79;52.48
21828;BME280;11076;47.942;11.804;2023-04-07T10:13:54;94116.69;;;11.65;51.33
21828;BME280;11076;47.942;11.804;2023-04-07T10:18:57;94105.88;;;11.71;49.93
21828;BME280;11076;47.942;11.804;2023-04-07T10:24:29;94109.38;;;12.07;50.54
21828;BME280;11076;47.942;11.804;2023-04-07T10:29:40;94103.41;;;12.29;49.65
21828;BME280;11076;47.942;11.804;2023-04-07T10:56:09;94104.97;;;11.66;49.92
21828;BME280;11076;47.942;11.804;2023-04-07T11:06:14;94094.94;;;12.08;47.89
21828;BME280;11076;47.942;11.804;2023-04-07T11:11:35;94086.69;;;12.50;48.24
21828;BME280;11076;47.942;11.804;2023-04-07T11:16:41;94087.00;;;12.66;48.23
21828;BME280;11076;47.942;11.804;2023-04-07T11:21:44;94077.84;;;13.24;47.29
21828;BME280;11076;47.942;11.804;2023-04-07T11:26:47;94077.19;;;14.02;46.22
21828;BME280;11076;47.942;11.804;2023-04-07T11:31:51;94070.13;;;14.57;43.37
21828;BME280;11076;47.942;11.804;2023-04-07T11:36:54;94076.66;;;14.66;42.35
21828;BME280;11076;47.942;11.804;2023-04-07T11:42:00;94074.81;;;13.49;42.54
21828;BME280;11076;47.942;11.804;2023-04-07T11:47:03;94067.91;;;14.31;43.28
21828;BME280;11076;47.942;11.804;2023-04-07T11:52:06;94059.63;;;14.38;43.53
21828;BME280;11076;47.942;11.804;2023-04-07T11:57:09;94062.63;;;14.59;45.15
21828;BME280;11076;47.942;11.804;2023-04-07T12:02:30;94063.47;;;12.85;45.06
21828;BME280;11076;47.942;11.804;2023-04-07T12:07:33;94074.22;;;12.04;47.72
21828;BME280;11076;47.942;11.804;2023-04-07T12:12:35;94074.78;;;11.70;47.80
21828;BME280;11076;47.942;11.804;2023-04-07T12:17:43;94067.63;;;12.23;47.21
21828;BME280;11076;47.942;11.804;2023-04-07T12:22:46;94064.66;;;12.77;46.97
21828;BME280;11076;47.942;11.804;2023-04-07T12:27:51;94065.63;;;13.00;45.63
21828;BME280;11076;47.942;11.804;2023-04-07T12:32:53;94064.50;;;13.97;43.89
21828;BME280;11076;47.942;11.804;2023-04-07T12:37:56;94067.59;;;13.89;44.95
21828;BME280;11076;47.942;11.804;2023-04-07T12:42:59;94067.66;;;13.94;45.21
21828;BME280;11076;47.942;11.804;2023-04-07T12:48:01;94062.03;;;14.12;44.56
21828;BME280;11076;47.942;11.804;2023-04-07T12:53:04;94058.91;;;14.21;44.29
21828;BME280;11076;47.942;11.804;2023-04-07T12:58:06;94059.31;;;13.57;44.43
21828;BME280;11076;47.942;11.804;2023-04-07T13:03:10;94062.81;;;13.23;45.01
21828;BME280;11076;47.942;11.804;2023-04-07T13:08:13;94064.41;;;13.07;45.04
21828;BME280;11076;47.942;11.804;2023-04-07T13:13:15;94064.63;;;13.35;44.79
21828;BME280;11076;47.942;11.804;2023-04-07T13:18:17;94054.94;;;13.50;44.05
21828;BME280;11076;47.942;11.804;2023-04-07T13:23:20;94058.69;;;13.32;44.33
21828;BME280;11076;47.942;11.804;2023-04-07T13:28:22;94063.72;;;13.46;44.98
21828;BME280;11076;47.942;11.804;2023-04-07T13:33:25;94049.00;;;13.48;45.69
21828;BME280;11076;47.942;11.804;2023-04-07T13:38:27;94060.59;;;13.20;45.46
21828;BME280;11076;47.942;11.804;2023-04-07T13:43:30;94062.47;;;12.74;46.62
21828;BME280;11076;47.942;11.804;2023-04-07T13:48:32;94050.72;;;12.63;46.51
21828;BME280;11076;47.942;11.804;2023-04-07T13:53:34;94055.19;;;12.86;46.07
21828;BME280;11076;47.942;11.804;2023-04-07T13:58:37;94053.19;;;12.93;45.91
21828;BME280;11076;47.942;11.804;2023-04-07T14:03:39;94059.97;;;13.13;46.26
21828;BME280;11076;47.942;11.804;2023-04-07T14:08:42;94063.28;;;13.20;46.44
21828;BME280;11076;47.942;11.804;2023-04-07T14:13:45;94052.91;;;12.95;45.84
21828;BME280;11076;47.942;11.804;2023-04-07T14:18:48;94054.13;;;12.59;46.13
21828;BME280;11076;47.942;11.804;2023-04-07T14:23:53;94063.50;;;12.44;46.53
21828;BME280;11076;47.942;11.804;2023-04-07T14:28:55;94050.84;;;12.68;46.74
21828;BME280;11076;47.942;11.804;2023-04-07T14:33:58;94051.47;;;12.87;46.61
21828;BME280;11076;47.942;11.804;2023-04-07T14:39:01;94054.91;;;12.42;47.88
21828;BME280;11076;47.942;11.804;2023-04-07T14:44:04;94063.03;;;11.95;48.82
21828;BME280;11076;47.942;11.804;2023-04-07T14:49:07;94063.72;;;11.67;49.91
21828;BME280;11076;47.942;11.804;2023-04-07T14:54:10;94067.78;;;11.69;50.30
21828;BME280;11076;47.942;11.804;2023-04-07T14:59:13;94077.00;;;11.85;51.34
21828;BME280;11076;47.942;11.804;2023-04-07T15:04:18;94064.19;;;11.75;50.95
21828;BME280;11076;47.942;11.804;2023-04-07T15:09:21;94071.63;;;11.26;50.89
21828;BME280;11076;47.942;11.804;2023-04-07T15:14:24;94077.41;;;10.69;53.32
21828;BME280;11076;47.942;11.804;2023-04-07T15:19:26;94080.56;;;10.48;55.76
21828;BME280;11076;47.942;11.804;2023-04-07T15:24:29;94081.00;;;10.63;55.06
21828;BME280;11076;47.942;11.804;2023-04-07T15:29:31;94087.56;;;10.79;54.77
21828;BME280;11076;47.942;11.804;2023-04-07T15:34:34;94086.88;;;10.53;54.97
21828;BME280;11076;47.942;11.804;2023-04-07T15:39:36;94085.25;;;10.34;55.85
21828;BME280;11076;47.942;11.804;2023-04-07T15:44:40;94084.59;;;10.39;55.88
21828;BME280;11076;47.942;11.804;2023-04-07T15:49:42;94094.13;;;10.34;55.32
21828;BME280;11076;47.942;11.804;2023-04-07T15:54:45;94101.13;;;9.92;56.52
21828;BME280;11076;47.942;11.804;2023-04-07T15:59:47;94097.56;;;10.16;56.80
21828;BME280;11076;47.942;11.804;2023-04-07T16:04:49;94099.22;;;9.99;56.68
21828;BME280;11076;47.942;11.804;2023-04-07T16:09:52;94104.84;;;9.91;56.84
21828;BME280;11076;47.942;11.804;2023-04-07T16:14:55;94103.41;;;9.70;57.92
21828;BME280;11076;47.942;11.804;2023-04-07T16:19:57;94105.16;;;9.58;58.56
21828;BME280;11076;47.942;11.804;2023-04-07T16:24:59;94106.13;;;9.38;58.31
21828;BME280;11076;47.942;11.804;2023-04-07T16:30:06;94116.69;;;9.26;59.61
21828;BME280;11076;47.942;11.804;2023-04-07T16:35:09;94123.16;;;9.12;60.13
21828;BME280;11076;47.942;11.804;2023-04-07T16:40:12;94125.38;;;9.15;60.51
21828;BME280;11076;47.942;11.804;2023-04-07T16:45:15;94124.25;;;9.04;61.18
21828;BME280;11076;47.942;11.804;2023-04-07T16:50:17;94131.50;;;8.90;62.19
21828;BME280;11076;47.942;11.804;2023-04-07T16:55:20;94134.97;;;8.98;62.63
21828;BME280;11076;47.942;11.804;2023-04-07T17:00:22;94139.69;;;8.95;62.75
21828;BME280;11076;47.942;11.804;2023-04-07T17:05:25;94141.50;;;9.02;62.12
21828;BME280;11076;47.942;11.804;2023-04-07T17:10:27;94151.97;;;8.96;62.41
21828;BME280;11076;47.942;11.804;2023-04-07T17:15:29;94157.97;;;8.92;63.11
21828;BME280;11076;47.942;11.804;2023-04-07T17:20:32;94154.72;;;8.83;64.13
21828;BME280;11076;47.942;11.804;2023-04-07T17:25:35;94166.41;;;8.82;63.72
21828;BME280;11076;47.942;11.804;2023-04-07T17:30:38;94169.34;;;8.74;64.94
21828;BME280;11076;47.942;11.804;2023-04-07T17:35:40;94170.97;;;8.75;65.63
21828;BME280;11076;47.942;11.804;2023-04-07T17:40:42;94175.69;;;8.73;66.42
21828;BME280;11076;47.942;11.804;2023-04-07T17:45:45;94186.19;;;8.68;67.92
21828;BME280;11076;47.942;11.804;2023-04-07T17:50:48;94189.50;;;8.56;69.25
21828;BME280;11076;47.942;11.804;2023-04-07T17:55:50;94192.00;;;8.45;69.47
21828;BME280;11076;47.942;11.804;2023-04-07T18:00:53;94207.19;;;8.24;71.12
21828;BME280;11076;47.942;11.804;2023-04-07T18:05:55;94211.94;;;8.09;71.88
21828;BME280;11076;47.942;11.804;2023-04-07T18:10:58;94214.22;;;7.92;73.69
21828;BME280;11076;47.942;11.804;2023-04-07T18:16:01;94219.56;;;7.72;75.54
21828;BME280;11076;47.942;11.804;2023-04-07T18:21:04;94230.16;;;7.52;76.54
21828;BME280;11076;47.942;11.804;2023-04-07T18:26:07;94239.16;;;7.37;77.52
21828;BME280;11076;47.942;11.804;2023-04-07T18:31:10;94240.78;;;7.25;78.73
21828;BME280;11076;47.942;11.804;2023-04-07T18:36:13;94251.38;;;7.12;79.99
21828;BME280;11076;47.942;11.804;2023-04-07T18:41:15;94249.34;;;7.07;80.09
21828;BME280;11076;47.942;11.804;2023-04-07T18:46:18;94253.41;;;6.96;81.69
21828;BME280;11076;47.942;11.804;2023-04-07T18:51:20;94254.81;;;6.92;83.14
21828;BME280;11076;47.942;11.804;2023-04-07T18:56:23;94262.81;;;7.06;82.62
21828;BME280;11076;47.942;11.804;2023-04-07T19:01:28;94265.84;;;6.96;83.21
21828;BME280;11076;47.942;11.804;2023-04-07T19:06:31;94267.69;;;6.89;83.38
21828;BME280;11076;47.942;11.804;2023-04-07T19:11:33;94275.56;;;6.69;83.82
21828;BME280;11076;47.942;11.804;2023-04-07T19:16:36;94275.34;;;6.64;84.51
21828;BME280;11076;47.942;11.804;2023-04-07T19:21:39;94281.28;;;6.66;84.77
21828;BME280;11076;47.942;11.804;2023-04-07T19:26:42;94282.69;;;6.68;85.55
21828;BME280;11076;47.942;11.804;2023-04-07T19:31:44;94284.34;;;6.63;85.93
21828;BME280;11076;47.942;11.804;2023-04-07T19:36:47;94281.00;;;6.54;85.57
21828;BME280;11076;47.942;11.804;2023-04-07T19:41:49;94295.31;;;6.53;86.28
21828;BME280;11076;47.942;11.804;2023-04-07T19:46:52;94301.69;;;6.59;86.27
21828;BME280;11076;47.942;11.804;2023-04-07T19:51:54;94299.44;;;6.62;86.21
21828;BME280;11076;47.942;11.804;2023-04-07T19:56:57;94304.56;;;6.64;86.22
21828;BME280;11076;47.942;11.804;2023-04-07T20:01:59;94303.97;;;6.68;86.04
21828;BME280;11076;47.942;11.804;2023-04-07T20:07:02;94302.16;;;6.69;86.55
21828;BME280;11076;47.942;11.804;2023-04-07T20:12:05;94303.75;;;6.63;86.69
21828;BME280;11076;47.942;11.804;2023-04-07T20:17:07;94312.53;;;6.64;87.04
21828;BME280;11076;47.942;11.804;2023-04-07T20:22:10;94312.50;;;6.57;88.52
21828;BME280;11076;47.942;11.804;2023-04-07T20:27:12;94307.34;;;6.49;89.31
21828;BME280;11076;47.942;11.804;2023-04-07T20:32:15;94316.72;;;6.45;90.12
21828;BME280;11076;47.942;11.804;2023-04-07T20:37:18;94317.09;;;6.42;90.30
21828;BME280;11076;47.942;11.804;2023-04-07T20:42:20;94314.44;;;6.42;90.41
21828;BME280;11076;47.942;11.804;2023-04-07T20:47:23;94315.47;;;6.41;90.75
21828;BME280;11076;47.942;11.804;2023-04-07T20:52:25;94319.13;;;6.40;90.98
21828;BME280;11076;47.942;11.804;2023-04-07T20:57:28;94319.72;;;6.35;91.17
21828;BME280;11076;47.942;11.804;2023-04-07T21:02:31;94320.09;;;6.32;91.90
21828;BME280;11076;47.942;11.804;2023-04-07T21:07:35;94322.91;;;6.24;91.73
21828;BME280;11076;47.942;11.804;2023-04-07T21:12:37;94322.09;;;6.23;92.25
21828;BME280;11076;47.942;11.804;2023-04-07T21:17:40;94319.00;;;6.20;92.51
21828;BME280;11076;47.942;11.804;2023-04-07T21:22:43;94322.25;;;6.15;92.82
21828;BME280;11076;47.942;11.804;2023-04-07T21:27:45;94322.00;;;6.10;92.23
21828;BME280;11076;47.942;11.804;2023-04-07T21:32:47;94328.88;;;6.04;92.67
21828;BME280;11076;47.942;11.804;2023-04-07T21:37:50;94327.47;;;5.87;92.68
21828;BME280;11076;47.942;11.804;2023-04-07T21:42:52;94323.38;;;5.63;92.04
21828;BME280;11076;47.942;11.804;2023-04-07T21:47:55;94323.94;;;5.36;92.45
21828;BME280;11076;47.942;11.804;2023-04-07T21:52:57;94322.53;;;5.19;93.85
21828;BME280;11076;47.942;11.804;2023-04-07T21:58:00;94321.31;;;5.00;94.60
21828;BME280;11076;47.942;11.804;2023-04-07T22:03:05;94333.13;;;4.97;95.29
21828;BME280;11076;47.942;11.804;2023-04-07T22:08:08;94333.53;;;5.01;99.40
21828;BME280;11076;47.942;11.804;2023-04-07T22:13:11;94333.38;;;5.03;99.86
21828;BME280;11076;47.942;11.804;2023-04-07T22:18:13;94343.31;;;5.01;99.97
21828;BME280;11076;47.942;11.804;2023-04-07T22:23:15;94348.81;;;4.99;99.61
21828;BME280;11076;47.942;11.804;2023-04-07T22:28:18;94341.06;;;4.83;99.20
21828;BME280;11076;47.942;11.804;2023-04-07T22:33:20;94342.66;;;4.62;99.08
21828;BME280;11076;47.942;11.804;2023-04-07T22:38:23;94342.72;;;4.39;99.29
21828;BME280;11076;47.942;11.804;2023-04-07T22:43:25;94346.19;;;4.25;99.78
21828;BME280;11076;47.942;11.804;2023-04-07T22:48:27;94357.19;;;4.13;100.00
21828;BME280;11076;47.942;11.804;2023-04-07T22:53:30;94356.00;;;4.01;100.00
21828;BME280;11076;47.942;11.804;2023-04-07T22:58:32;94359.06;;;3.90;100.00
21828;BME280;11076;47.942;11.804;2023-04-07T23:03:35;94360.84;;;3.74;100.00
21828;BME280;11076;47.942;11.804;2023-04-07T23:08:37;94357.97;;;3.61;100.00
21828;BME280;11076;47.942;11.804;2023-04-07T23:13:40;94357.22;;;3.52;100.00
21828;BME280;11076;47.942;11.804;2023-04-07T23:18:43;94365.59;;;3.56;100.00
21828;BME280;11076;47.942;11.804;2023-04-07T23:23:45;94369.50;;;3.45;100.00
21828;BME280;11076;47.942;11.804;2023-04-07T23:28:48;94370.38;;;3.37;100.00
21828;BME280;11076;47.942;11.804;2023-04-07T23:33:50;94379.47;;;3.35;100.00
21828;BME280;11076;47.942;11.804;2023-04-07T23:38:55;94377.38;;;3.30;100.00
21828;BME280;11076;47.942;11.804;2023-04-07T23:43:58;94373.38;;;3.34;100.00
21828;BME280;11076;47.942;11.804;2023-04-07T23:49:01;94373.38;;;3.34;100.00
21828;BME280;11076;47.942;11.804;2023-04-07T23:54:03;94372.75;;;3.24;100.00
21828;BME280;11076;47.942;11.804;2023-04-07T23:59:06;94363.25;;;3.15;100.00
